Time;durP1;ratioP1;P1;durP2;ratioP2;P2;SDS_P1;SDS_P2;PMS_P1;PMS_P2;Temp;Humidity;BMP_temperature;BMP_pressure;BME280_temperature;BME280_humidity;BME280_pressure;Samples;Min_cycle;Max_cycle;Signal;HPM_P1;HPM_P2
2022/03/29 00:02:23;;;;;;;13.88;9.70;;;;;;;;;;5079447;28;20060;-80
2022/03/29 00:04:51;;;;;;;13.20;10.38;;;;;;;;;;5089199;28;20101;-81
2022/03/29 00:07:18;;;;;;;14.15;9.18;;;;;;;;;;5071770;28;20113;-80
2022/03/29 00:09:45;;;;;;;14.00;9.60;;;;;;;;;;5090914;28;20036;-77
2022/03/29 00:12:13;;;;;;;12.60;9.80;;;;;;;;;;5090030;28;20036;-76
2022/03/29 00:14:40;;;;;;;13.85;10.70;;;;;;;;;;5100500;28;20151;-78
2022/03/29 00:17:08;;;;;;;13.02;9.82;;;;;;;;;;5062796;28;20073;-78
2022/03/29 00:19:53;;;;;;;12.07;10.05;;;;;;;;;;5076313;28;20047;-80
2022/03/29 00:22:40;;;;;;;12.68;10.00;;;;;;;;;;5054907;28;20606;-77
2022/03/29 00:25:08;;;;;;;12.73;9.82;;;;;;;;;;5038261;28;20067;-78
2022/03/29 00:27:36;;;;;;;15.27;10.35;;;;;;;;;;5074369;28;20491;-80
2022/03/29 00:30:04;;;;;;;14.73;10.90;;;;;;;;;;5038303;28;20052;-78
2022/03/29 00:32:31;;;;;;;15.52;10.43;;;;;;;;;;5090542;28;20512;-76
2022/03/29 00:34:59;;;;;;;15.95;11.27;;;;;;;;;;5056271;28;20148;-77
2022/03/29 00:37:26;;;;;;;13.57;10.23;;;;;;;;;;5068557;28;20036;-79
2022/03/29 00:39:54;;;;;;;13.32;10.27;;;;;;;;;;5056942;28;20119;-75
2022/03/29 00:42:21;;;;;;;13.93;10.00;;;;;;;;;;5080168;28;20074;-79
2022/03/29 00:44:49;;;;;;;15.07;10.57;;;;;;;;;;5077677;28;20557;-79
2022/03/29 00:47:16;;;;;;;15.73;10.80;;;;;;;;;;5052471;28;20048;-76
2022/03/29 00:49:44;;;;;;;13.85;10.18;;;;;;;;;;5071568;28;20105;-76
2022/03/29 00:52:11;;;;;;;15.38;11.27;;;;;;;;;;5067263;28;20042;-75
2022/03/29 00:54:41;;;;;;;16.88;11.63;;;;;;;;;;5081781;28;20079;-77
2022/03/29 00:57:09;;;;;;;19.58;12.85;;;;;;;;;;5086103;28;20123;-79
2022/03/29 00:59:38;;;;;;;15.05;10.50;;;;;;;;;;5082991;28;20067;-76
2022/03/29 01:02:05;;;;;;;13.73;9.80;;;;;;;;;;5050376;28;20089;-75
2022/03/29 01:04:33;;;;;;;19.75;11.45;;;;;;;;;;5071876;28;20068;-76
2022/03/29 01:07:01;;;;;;;14.80;11.20;;;;;;;;;;5062187;28;20084;-76
2022/03/29 01:09:30;;;;;;;15.85;12.02;;;;;;;;;;5040816;28;20148;-79
2022/03/29 01:11:57;;;;;;;18.80;11.13;;;;;;;;;;5080938;28;20040;-75
2022/03/29 01:14:26;;;;;;;16.33;11.05;;;;;;;;;;5105140;28;20048;-76
2022/03/29 01:19:41;;;;;;;13.13;10.68;;;;;;;;;;5097574;28;20110;-76
2022/03/29 01:22:10;;;;;;;16.90;11.52;;;;;;;;;;5079675;28;20174;-78
2022/03/29 01:24:38;;;;;;;12.95;10.25;;;;;;;;;;5058327;28;20056;-77
2022/03/29 01:27:07;;;;;;;15.23;10.32;;;;;;;;;;5065960;28;20202;-77
2022/03/29 01:29:36;;;;;;;14.43;10.27;;;;;;;;;;5054595;28;20519;-76
2022/03/29 01:32:06;;;;;;;14.70;11.30;;;;;;;;;;5087935;28;20587;-76
2022/03/29 01:34:35;;;;;;;13.02;10.70;;;;;;;;;;5057805;28;20064;-77
2022/03/29 01:37:04;;;;;;;12.13;9.95;;;;;;;;;;5071320;28;20050;-76
2022/03/29 01:39:32;;;;;;;14.40;10.82;;;;;;;;;;5074012;28;20070;-77
2022/03/29 01:42:00;;;;;;;13.55;10.68;;;;;;;;;;5090105;28;20043;-75
2022/03/29 01:44:28;;;;;;;14.75;11.27;;;;;;;;;;5066741;28;20052;-76
2022/03/29 01:46:55;;;;;;;14.55;11.70;;;;;;;;;;5071047;28;20107;-78
2022/03/29 01:49:23;;;;;;;14.07;11.00;;;;;;;;;;5092840;28;20070;-78
2022/03/29 01:51:50;;;;;;;14.77;10.52;;;;;;;;;;5057122;28;20526;-79
2022/03/29 01:54:18;;;;;;;16.10;10.45;;;;;;;;;;5075306;28;20040;-79
2022/03/29 01:56:45;;;;;;;14.45;10.25;;;;;;;;;;5071477;28;20043;-78
2022/03/29 01:59:13;;;;;;;13.45;10.55;;;;;;;;;;5055680;28;20071;-77
2022/03/29 02:01:45;;;;;;;16.10;12.27;;;;;;;;;;5044818;28;20401;-77
2022/03/29 02:04:13;;;;;;;13.88;10.30;;;;;;;;;;5085053;28;20048;-75
2022/03/29 02:06:41;;;;;;;14.48;10.70;;;;;;;;;;5096776;28;20053;-75
2022/03/29 02:09:08;;;;;;;14.15;11.40;;;;;;;;;;5085164;28;20129;-76
2022/03/29 02:11:36;;;;;;;15.63;11.23;;;;;;;;;;5082881;28;20117;-77
2022/03/29 02:14:03;;;;;;;14.65;11.30;;;;;;;;;;5086234;28;20048;-75
2022/03/29 02:16:31;;;;;;;12.27;10.13;;;;;;;;;;5049806;28;20036;-78
2022/03/29 02:18:58;;;;;;;14.13;10.95;;;;;;;;;;5064177;28;20041;-80
2022/03/29 02:21:26;;;;;;;14.05;11.18;;;;;;;;;;5094612;28;20107;-77
2022/03/29 02:23:53;;;;;;;14.10;10.77;;;;;;;;;;5078409;28;20040;-76
2022/03/29 02:26:21;;;;;;;16.00;10.98;;;;;;;;;;5110947;28;20129;-75
2022/03/29 02:28:48;;;;;;;13.65;11.25;;;;;;;;;;5053931;28;20622;-79
2022/03/29 02:31:15;;;;;;;16.10;10.93;;;;;;;;;;5082546;28;20055;-74
2022/03/29 02:33:43;;;;;;;12.65;10.55;;;;;;;;;;5093488;28;20056;-78
2022/03/29 02:36:12;;;;;;;14.95;10.57;;;;;;;;;;5050732;28;20041;-76
2022/03/29 02:38:40;;;;;;;14.23;10.25;;;;;;;;;;5054405;28;20412;-78
2022/03/29 02:41:08;;;;;;;12.55;10.95;;;;;;;;;;5081923;28;20673;-77
2022/03/29 02:43:36;;;;;;;16.73;10.68;;;;;;;;;;5094393;28;20044;-78
2022/03/29 02:46:04;;;;;;;15.23;10.70;;;;;;;;;;5098154;28;20468;-78
2022/03/29 02:48:32;;;;;;;15.55;12.02;;;;;;;;;;5115805;28;20047;-77
2022/03/29 02:50:59;;;;;;;13.93;11.27;;;;;;;;;;5055534;28;20059;-79
2022/03/29 02:53:26;;;;;;;13.10;10.45;;;;;;;;;;5079319;28;20574;-77
2022/03/29 02:55:54;;;;;;;15.50;10.48;;;;;;;;;;5104029;28;20108;-75
2022/03/29 02:58:22;;;;;;;18.35;12.20;;;;;;;;;;5050920;28;20053;-75
2022/03/29 03:00:51;;;;;;;13.52;10.98;;;;;;;;;;5083779;28;20052;-77
2022/03/29 03:03:19;;;;;;;14.55;10.23;;;;;;;;;;5058870;28;20036;-79
2022/03/29 03:05:46;;;;;;;16.85;11.18;;;;;;;;;;5080434;28;20071;-76
2022/03/29 03:08:14;;;;;;;13.15;10.32;;;;;;;;;;5072414;28;20145;-75
2022/03/29 03:10:41;;;;;;;18.10;11.48;;;;;;;;;;5078466;28;20642;-77
2022/03/29 03:13:11;;;;;;;14.10;10.60;;;;;;;;;;5071805;28;20469;-76
2022/03/29 03:15:38;;;;;;;13.85;10.13;;;;;;;;;;5062265;28;20111;-78
2022/03/29 03:18:06;;;;;;;14.60;11.25;;;;;;;;;;5075430;28;20064;-76
2022/03/29 03:20:34;;;;;;;23.13;12.85;;;;;;;;;;5100184;22;20483;-78
2022/03/29 03:23:02;;;;;;;13.73;10.02;;;;;;;;;;5066296;28;20158;-78
2022/03/29 03:25:29;;;;;;;16.05;11.35;;;;;;;;;;5065807;28;20146;-78
2022/03/29 03:27:56;;;;;;;14.23;11.10;;;;;;;;;;5064838;28;20047;-79
2022/03/29 03:30:23;;;;;;;18.80;12.35;;;;;;;;;;5060407;28;20049;-78
2022/03/29 03:32:53;;;;;;;19.63;13.10;;;;;;;;;;5061402;28;20731;-78
2022/03/29 03:35:21;;;;;;;14.70;11.20;;;;;;;;;;5052187;28;20067;-78
2022/03/29 03:37:49;;;;;;;19.83;12.30;;;;;;;;;;5062417;28;20047;-78
2022/03/29 03:40:16;;;;;;;19.67;11.57;;;;;;;;;;5067645;28;20044;-79
2022/03/29 03:42:44;;;;;;;14.68;11.07;;;;;;;;;;5060536;28;20043;-78
2022/03/29 03:45:11;;;;;;;19.10;12.60;;;;;;;;;;5057183;28;21045;-79
2022/03/29 03:47:39;;;;;;;17.63;12.68;;;;;;;;;;5050750;28;20120;-79
2022/03/29 03:50:07;;;;;;;17.00;12.55;;;;;;;;;;5067341;28;20056;-78
2022/03/29 03:52:35;;;;;;;18.23;13.85;;;;;;;;;;5069661;28;20102;-79
2022/03/29 03:55:03;;;;;;;19.80;13.52;;;;;;;;;;5066977;28;20761;-78
2022/03/29 03:57:30;;;;;;;16.05;12.02;;;;;;;;;;5044588;28;20045;-78
2022/03/29 03:59:57;;;;;;;17.10;12.73;;;;;;;;;;5050648;28;20588;-79
2022/03/29 04:02:25;;;;;;;18.08;13.13;;;;;;;;;;5059085;28;20039;-79
2022/03/29 04:04:52;;;;;;;15.77;11.85;;;;;;;;;;5046562;28;20055;-78
2022/03/29 04:07:20;;;;;;;17.02;11.85;;;;;;;;;;5056559;28;20048;-78
2022/03/29 04:09:47;;;;;;;18.27;13.00;;;;;;;;;;5065402;28;20048;-78
2022/03/29 04:12:14;;;;;;;17.42;12.10;;;;;;;;;;5051369;28;20508;-78
2022/03/29 04:14:42;;;;;;;19.13;12.82;;;;;;;;;;5049445;28;20041;-78
2022/03/29 04:17:11;;;;;;;22.35;15.45;;;;;;;;;;5060845;28;20044;-78
2022/03/29 04:19:39;;;;;;;19.48;13.07;;;;;;;;;;5056159;28;20079;-78
2022/03/29 04:22:06;;;;;;;19.58;12.50;;;;;;;;;;5067993;28;20131;-79
2022/03/29 04:24:34;;;;;;;16.98;13.85;;;;;;;;;;5052073;28;20044;-78
2022/03/29 04:27:02;;;;;;;17.60;12.63;;;;;;;;;;5063404;28;20041;-79
2022/03/29 04:29:29;;;;;;;20.75;13.93;;;;;;;;;;5060153;28;20069;-79
2022/03/29 04:31:57;;;;;;;19.50;14.57;;;;;;;;;;5064358;28;20487;-78
2022/03/29 04:34:25;;;;;;;23.05;14.77;;;;;;;;;;5047777;28;20373;-79
2022/03/29 04:36:52;;;;;;;17.48;13.00;;;;;;;;;;5060778;28;20040;-78
2022/03/29 04:39:20;;;;;;;18.45;12.70;;;;;;;;;;5047032;28;20045;-78
2022/03/29 04:41:47;;;;;;;18.75;13.93;;;;;;;;;;5030068;28;20098;-79
2022/03/29 04:44:36;;;;;;;18.40;13.38;;;;;;;;;;5062450;28;20102;-79
2022/03/29 04:47:04;;;;;;;19.20;14.45;;;;;;;;;;5060879;28;20106;-78
2022/03/29 04:49:32;;;;;;;15.65;12.43;;;;;;;;;;5064040;28;20067;-79
2022/03/29 04:51:59;;;;;;;21.38;14.27;;;;;;;;;;5064013;28;20184;-78
2022/03/29 04:54:27;;;;;;;21.77;14.05;;;;;;;;;;5048939;28;20036;-79
2022/03/29 04:56:54;;;;;;;21.75;13.48;;;;;;;;;;5064700;28;20045;-78
2022/03/29 04:59:22;;;;;;;16.58;12.63;;;;;;;;;;5045429;28;20044;-81
2022/03/29 05:01:49;;;;;;;18.45;13.93;;;;;;;;;;5063111;28;20112;-81
2022/03/29 05:04:17;;;;;;;16.73;12.68;;;;;;;;;;5043303;28;20113;-80
2022/03/29 05:06:44;;;;;;;21.58;13.65;;;;;;;;;;5056610;28;20048;-79
2022/03/29 05:09:11;;;;;;;17.92;13.80;;;;;;;;;;5057620;28;20040;-80
2022/03/29 05:11:39;;;;;;;22.50;12.60;;;;;;;;;;5060315;28;20040;-77
2022/03/29 05:14:06;;;;;;;19.80;13.27;;;;;;;;;;5062539;28;20047;-78
2022/03/29 05:16:34;;;;;;;18.70;14.55;;;;;;;;;;5064396;28;20048;-79
2022/03/29 05:19:01;;;;;;;17.90;12.95;;;;;;;;;;5057450;28;20045;-78
2022/03/29 05:21:30;;;;;;;17.83;12.90;;;;;;;;;;5070919;28;20037;-79
2022/03/29 05:23:57;;;;;;;19.15;14.40;;;;;;;;;;5090420;28;20055;-78
2022/03/29 05:26:25;;;;;;;24.85;13.80;;;;;;;;;;5084468;28;20045;-78
2022/03/29 05:28:52;;;;;;;18.42;12.30;;;;;;;;;;5084426;28;20028;-79
2022/03/29 05:31:20;;;;;;;17.77;13.50;;;;;;;;;;5084165;28;20082;-79
2022/03/29 05:33:47;;;;;;;19.70;14.40;;;;;;;;;;5083941;28;20045;-79
2022/03/29 05:36:15;;;;;;;22.42;14.35;;;;;;;;;;5056486;28;20029;-79
2022/03/29 05:38:48;;;;;;;16.40;12.00;;;;;;;;;;5086741;28;20027;-79
2022/03/29 05:41:19;;;;;;;17.92;12.52;;;;;;;;;;5085343;28;20025;-79
2022/03/29 05:43:49;;;;;;;18.07;12.70;;;;;;;;;;5091914;28;20062;-81
2022/03/29 05:49:03;;;;;;;15.10;11.60;;;;;;;;;;5093500;28;20049;-79
2022/03/29 05:51:31;;;;;;;19.65;15.10;;;;;;;;;;5080296;28;20029;-79
2022/03/29 05:54:51;;;;;;;;;;;;;;;;;;;;;
2022/03/29 06:07:52;;;;;;;20.20;12.88;;;;;;;;;;4985218;28;20046;-81
2022/03/29 06:11:14;;;;;;;18.58;12.48;;;;;;;;;;5093100;22;20051;-78
2022/03/29 06:13:41;;;;;;;17.63;13.55;;;;;;;;;;5096075;28;20093;-78
2022/03/29 06:16:09;;;;;;;21.15;14.10;;;;;;;;;;5107410;22;20127;-77
2022/03/29 06:18:37;;;;;;;17.92;13.25;;;;;;;;;;5102091;28;20184;-77
2022/03/29 06:21:04;;;;;;;15.50;11.82;;;;;;;;;;5093113;28;20032;-77
2022/03/29 06:23:31;;;;;;;16.95;11.80;;;;;;;;;;5097908;28;20090;-78
2022/03/29 06:25:59;;;;;;;19.15;11.63;;;;;;;;;;5092667;28;20043;-78
2022/03/29 06:28:27;;;;;;;17.95;12.32;;;;;;;;;;5099278;28;20051;-78
2022/03/29 06:30:56;;;;;;;17.95;12.30;;;;;;;;;;5101522;28;20071;-78
2022/03/29 06:33:26;;;;;;;17.60;12.90;;;;;;;;;;5096557;28;20061;-77
2022/03/29 06:35:53;;;;;;;17.08;12.40;;;;;;;;;;5095165;28;20043;-77
2022/03/29 06:38:21;;;;;;;17.80;13.25;;;;;;;;;;5099765;28;20052;-77
2022/03/29 06:40:49;;;;;;;18.08;12.45;;;;;;;;;;5096644;28;20035;-78
2022/03/29 06:43:17;;;;;;;18.38;11.88;;;;;;;;;;5093369;28;20044;-79
2022/03/29 06:45:44;;;;;;;16.95;12.60;;;;;;;;;;5091196;28;20070;-78
2022/03/29 06:48:13;;;;;;;20.73;13.45;;;;;;;;;;5095514;28;20067;-78
2022/03/29 06:50:40;;;;;;;19.33;13.38;;;;;;;;;;5076371;28;20048;-78
2022/03/29 06:53:08;;;;;;;17.42;12.77;;;;;;;;;;5087631;28;20059;-78
2022/03/29 06:55:35;;;;;;;16.73;12.13;;;;;;;;;;5105749;28;20038;-77
2022/03/29 06:58:03;;;;;;;15.75;12.27;;;;;;;;;;5103017;28;20131;-77
2022/03/29 07:00:31;;;;;;;15.60;11.98;;;;;;;;;;5096997;28;20046;-78
2022/03/29 07:02:59;;;;;;;17.90;13.60;;;;;;;;;;5117789;28;20048;-78
2022/03/29 07:05:26;;;;;;;14.77;12.38;;;;;;;;;;5121249;28;20267;-77
2022/03/29 07:07:54;;;;;;;15.43;12.52;;;;;;;;;;5107996;28;20403;-78
2022/03/29 07:13:08;;;;;;;17.70;13.07;;;;;;;;;;5086416;28;20499;-78
2022/03/29 07:15:35;;;;;;;17.00;13.77;;;;;;;;;;5085667;28;20063;-79
2022/03/29 07:18:03;;;;;;;17.75;12.45;;;;;;;;;;5094848;28;20518;-78
2022/03/29 07:20:30;;;;;;;17.17;12.68;;;;;;;;;;5097252;28;20031;-78
2022/03/29 07:22:58;;;;;;;16.75;12.90;;;;;;;;;;5101494;28;20062;-78
2022/03/29 07:25:31;;;;;;;14.35;11.55;;;;;;;;;;5105083;28;20040;-77
2022/03/29 07:27:59;;;;;;;18.15;12.20;;;;;;;;;;5097475;28;20202;-78
2022/03/29 07:30:27;;;;;;;19.25;13.55;;;;;;;;;;5090546;28;20559;-78
2022/03/29 07:32:57;;;;;;;26.85;13.50;;;;;;;;;;5096312;28;20105;-78
2022/03/29 07:35:26;;;;;;;21.05;13.35;;;;;;;;;;5097894;28;20082;-78
2022/03/29 07:37:54;;;;;;;17.25;13.10;;;;;;;;;;5087380;28;20047;-78
2022/03/29 07:40:22;;;;;;;25.80;13.63;;;;;;;;;;5100936;28;20383;-78
2022/03/29 07:42:50;;;;;;;22.60;12.60;;;;;;;;;;5090829;28;20071;-78
2022/03/29 07:45:18;;;;;;;19.08;13.27;;;;;;;;;;5086251;28;20071;-77
2022/03/29 07:47:49;;;;;;;16.77;13.38;;;;;;;;;;5092168;28;20048;-78
2022/03/29 07:50:39;;;;;;;20.63;13.68;;;;;;;;;;5101895;28;20055;-79
2022/03/29 07:53:06;;;;;;;16.60;13.13;;;;;;;;;;5090916;28;20039;-76
2022/03/29 07:55:36;;;;;;;20.10;12.70;;;;;;;;;;5078078;28;20067;-80
2022/03/29 07:58:16;;;;;;;14.35;12.68;;;;;;;;;;5087797;28;20095;-78
2022/03/29 08:00:44;;;;;;;16.10;13.05;;;;;;;;;;5088732;28;20781;-79
2022/03/29 08:03:15;;;;;;;17.23;13.55;;;;;;;;;;5101714;28;20170;-78
2022/03/29 08:05:44;;;;;;;18.00;13.50;;;;;;;;;;5097501;28;20043;-79
2022/03/29 08:08:21;;;;;;;15.30;13.10;;;;;;;;;;5086004;28;20051;-78
2022/03/29 08:10:49;;;;;;;23.88;13.80;;;;;;;;;;5107409;27;20551;-78
2022/03/29 08:13:16;;;;;;;20.40;13.95;;;;;;;;;;5107889;28;20126;-78
2022/03/29 08:15:45;;;;;;;17.58;13.73;;;;;;;;;;5104910;28;20040;-78
2022/03/29 08:18:13;;;;;;;17.67;13.85;;;;;;;;;;5087842;28;20032;-78
2022/03/29 08:20:40;;;;;;;15.85;12.80;;;;;;;;;;5090156;28;20127;-78
2022/03/29 08:23:08;;;;;;;24.42;14.40;;;;;;;;;;5087014;28;20480;-80
2022/03/29 08:25:39;;;;;;;18.88;13.60;;;;;;;;;;5091715;28;20065;-78
2022/03/29 08:28:07;;;;;;;15.60;12.32;;;;;;;;;;5107683;28;20043;-78
2022/03/29 08:30:37;;;;;;;22.10;14.18;;;;;;;;;;5101767;28;20105;-78
2022/03/29 08:33:05;;;;;;;15.00;13.40;;;;;;;;;;5090463;28;20051;-78
2022/03/29 08:35:33;;;;;;;18.45;13.60;;;;;;;;;;5095061;28;20146;-78
2022/03/29 08:38:01;;;;;;;19.88;13.70;;;;;;;;;;5107434;28;20046;-78
2022/03/29 08:40:49;;;;;;;22.50;14.82;;;;;;;;;;5103493;28;20067;-78
2022/03/29 08:43:16;;;;;;;18.75;12.80;;;;;;;;;;5102742;28;20479;-79
2022/03/29 08:45:48;;;;;;;17.60;13.95;;;;;;;;;;5100577;28;20044;-76
2022/03/29 08:48:15;;;;;;;16.00;11.98;;;;;;;;;;5099597;28;20049;-78
2022/03/29 08:50:45;;;;;;;17.30;14.45;;;;;;;;;;5103439;28;20507;-78
2022/03/29 08:53:14;;;;;;;18.85;13.75;;;;;;;;;;5086554;28;20128;-78
2022/03/29 08:55:44;;;;;;;18.05;13.68;;;;;;;;;;5089061;28;20076;-78
2022/03/29 08:58:12;;;;;;;13.95;12.55;;;;;;;;;;5106629;28;20050;-78
2022/03/29 09:00:41;;;;;;;20.70;14.20;;;;;;;;;;5104867;28;20036;-79
2022/03/29 09:03:09;;;;;;;17.63;13.23;;;;;;;;;;5103277;28;20044;-78
2022/03/29 09:05:36;;;;;;;16.33;13.07;;;;;;;;;;5092568;28;20043;-79
2022/03/29 09:08:11;;;;;;;19.65;13.70;;;;;;;;;;5111823;28;20047;-78
2022/03/29 09:10:43;;;;;;;16.35;12.85;;;;;;;;;;5116272;28;20039;-78
2022/03/29 09:13:31;;;;;;;18.38;14.32;;;;;;;;;;5114590;28;20047;-83
2022/03/29 09:16:00;;;;;;;18.80;13.27;;;;;;;;;;5096036;28;20046;-76
2022/03/29 09:18:28;;;;;;;19.58;14.13;;;;;;;;;;5094204;28;20044;-78
2022/03/29 09:21:13;;;;;;;19.58;14.32;;;;;;;;;;5106079;28;20044;-77
2022/03/29 09:23:41;;;;;;;16.30;13.90;;;;;;;;;;5079749;28;20060;-78
2022/03/29 09:26:28;;;;;;;17.98;13.57;;;;;;;;;;5080271;28;20082;-76
2022/03/29 09:28:55;;;;;;;20.13;14.32;;;;;;;;;;5101897;28;20116;-81
2022/03/29 09:31:23;;;;;;;20.80;13.90;;;;;;;;;;5071310;28;20430;-76
2022/03/29 09:33:51;;;;;;;16.20;13.10;;;;;;;;;;5093164;28;20104;-75
2022/03/29 09:36:21;;;;;;;22.13;12.82;;;;;;;;;;5098824;28;20047;-76
2022/03/29 09:38:52;;;;;;;15.98;12.45;;;;;;;;;;5068380;28;20581;-76
2022/03/29 09:41:20;;;;;;;17.20;13.10;;;;;;;;;;5105034;28;20069;-82
2022/03/29 09:44:06;;;;;;;17.08;12.70;;;;;;;;;;5102138;28;20286;-75
2022/03/29 09:46:52;;;;;;;19.45;12.48;;;;;;;;;;5100689;28;20071;-75
2022/03/29 09:49:20;;;;;;;16.73;12.98;;;;;;;;;;5092350;28;20096;-80
2022/03/29 09:51:48;;;;;;;15.75;12.93;;;;;;;;;;5085222;28;20481;-76
2022/03/29 09:54:15;;;;;;;21.75;13.10;;;;;;;;;;5075558;28;20464;-77
2022/03/29 09:56:50;;;;;;;15.63;12.85;;;;;;;;;;5097857;28;20036;-83
2022/03/29 09:59:23;;;;;;;13.30;11.82;;;;;;;;;;5076195;28;20456;-81
2022/03/29 10:01:54;;;;;;;18.65;12.57;;;;;;;;;;5088656;28;20043;-78
2022/03/29 10:04:23;;;;;;;17.75;12.70;;;;;;;;;;5098401;28;20048;-77
2022/03/29 10:06:55;;;;;;;18.30;12.60;;;;;;;;;;5088278;27;20039;-77
2022/03/29 10:09:29;;;;;;;14.50;12.30;;;;;;;;;;5132105;27;20047;-78
2022/03/29 10:11:58;;;;;;;17.08;13.55;;;;;;;;;;5077525;28;20052;-76
2022/03/29 10:14:31;;;;;;;17.38;13.35;;;;;;;;;;5082433;28;20055;-76
2022/03/29 10:16:58;;;;;;;16.30;12.18;;;;;;;;;;5082162;28;20070;-77
2022/03/29 10:19:26;;;;;;;16.88;12.95;;;;;;;;;;5121027;27;20533;-76
2022/03/29 10:21:55;;;;;;;20.83;13.05;;;;;;;;;;5117391;27;20040;-77
2022/03/29 10:24:28;;;;;;;18.38;12.93;;;;;;;;;;5077490;28;20512;-78
2022/03/29 10:26:56;;;;;;;16.77;13.57;;;;;;;;;;5110714;28;20067;-75
2022/03/29 10:29:24;;;;;;;19.73;13.38;;;;;;;;;;5094341;28;20059;-78
2022/03/29 10:31:56;;;;;;;22.60;13.13;;;;;;;;;;5111610;28;20545;-76
2022/03/29 10:34:25;;;;;;;17.70;13.25;;;;;;;;;;5092902;28;20040;-77
2022/03/29 10:36:58;;;;;;;17.92;12.95;;;;;;;;;;5095629;28;20044;-76
2022/03/29 10:39:41;;;;;;;24.70;12.93;;;;;;;;;;5090242;28;20051;-78
2022/03/29 10:42:27;;;;;;;15.55;12.70;;;;;;;;;;5104576;28;20047;-77
2022/03/29 10:45:01;;;;;;;24.02;15.20;;;;;;;;;;5092161;28;20846;-78
2022/03/29 10:48:04;;;;;;;24.33;19.75;;;;;;;;;;5073234;28;20052;-78
2022/03/29 10:50:54;;;;;;;20.80;13.18;;;;;;;;;;5106036;28;20039;-79
2022/03/29 10:53:23;;;;;;;19.38;14.23;;;;;;;;;;5096255;28;20043;-79
2022/03/29 10:56:09;;;;;;;19.73;13.00;;;;;;;;;;5079068;28;20112;-81
2022/03/29 10:58:57;;;;;;;19.00;13.80;;;;;;;;;;5081920;28;20048;-78
2022/03/29 11:01:24;;;;;;;16.02;12.95;;;;;;;;;;5103858;28;20044;-77
2022/03/29 11:04:03;;;;;;;25.38;13.50;;;;;;;;;;5109967;28;20036;-76
2022/03/29 11:06:30;;;;;;;19.35;14.65;;;;;;;;;;5109975;28;20058;-76
2022/03/29 11:09:04;;;;;;;19.45;14.40;;;;;;;;;;5109202;28;20104;-76
2022/03/29 11:11:43;;;;;;;24.33;13.70;;;;;;;;;;5110467;28;20048;-78
2022/03/29 11:14:29;;;;;;;20.75;14.30;;;;;;;;;;5109637;28;20073;-77
2022/03/29 11:17:09;;;;;;;21.33;13.85;;;;;;;;;;5092130;28;20043;-77
2022/03/29 11:19:39;;;;;;;19.27;14.07;;;;;;;;;;5100875;28;20035;-76
2022/03/29 11:22:22;;;;;;;17.58;13.75;;;;;;;;;;5094811;28;20561;-79
2022/03/29 11:24:51;;;;;;;21.65;13.43;;;;;;;;;;5095137;28;20051;-78
2022/03/29 11:27:22;;;;;;;21.92;14.18;;;;;;;;;;5093051;28;20055;-76
2022/03/29 11:29:50;;;;;;;20.95;13.65;;;;;;;;;;5063325;28;20499;-78
2022/03/29 11:32:18;;;;;;;20.75;14.43;;;;;;;;;;5110643;28;20499;-76
2022/03/29 11:34:46;;;;;;;18.15;14.02;;;;;;;;;;5101414;28;20050;-77
2022/03/29 11:37:31;;;;;;;21.23;14.48;;;;;;;;;;5062520;28;20052;-76
2022/03/29 11:39:59;;;;;;;18.27;13.35;;;;;;;;;;5061139;28;20499;-77
2022/03/29 11:42:45;;;;;;;17.77;13.45;;;;;;;;;;5066189;28;20055;-79
2022/03/29 11:45:14;;;;;;;19.75;13.65;;;;;;;;;;5100987;28;20092;-76
2022/03/29 11:47:55;;;;;;;23.05;13.88;;;;;;;;;;5104552;28;20097;-77
2022/03/29 11:50:29;;;;;;;19.88;13.85;;;;;;;;;;5104306;28;20572;-76
2022/03/29 11:52:56;;;;;;;23.95;14.98;;;;;;;;;;5109523;28;20044;-76
2022/03/29 11:55:29;;;;;;;18.77;14.10;;;;;;;;;;5106432;28;20438;-76
2022/03/29 11:57:57;;;;;;;19.58;14.43;;;;;;;;;;5109925;28;20047;-76
2022/03/29 12:00:28;;;;;;;20.80;14.85;;;;;;;;;;5104920;28;20126;-78
2022/03/29 12:02:56;;;;;;;19.85;14.13;;;;;;;;;;5109449;28;20065;-76
2022/03/29 12:05:28;;;;;;;18.73;13.90;;;;;;;;;;5109959;28;20440;-75
2022/03/29 12:07:57;;;;;;;15.27;13.20;;;;;;;;;;5102477;28;20372;-76
2022/03/29 12:10:44;;;;;;;17.02;14.25;;;;;;;;;;5135887;22;20054;-85
2022/03/29 12:13:25;;;;;;;17.45;13.75;;;;;;;;;;5068660;28;20062;-82
2022/03/29 12:16:59;;;;;;;17.33;13.18;;;;;;;;;;5001333;28;20103;-82
2022/03/29 12:24:06;;;;;;;19.63;14.45;;;;;;;;;;4931377;29;20059;-82
2022/03/29 12:27:14;;;;;;;16.02;13.68;;;;;;;;;;4889058;29;20064;-82
2022/03/29 12:30:39;;;;;;;17.60;14.30;;;;;;;;;;4895345;29;20088;-82
2022/03/29 12:33:28;;;;;;;20.13;14.88;;;;;;;;;;4921809;29;20055;-82
2022/03/29 12:36:54;;;;;;;18.83;14.70;;;;;;;;;;4909363;29;20059;-83
2022/03/29 12:47:18;;;;;;;20.73;14.25;;;;;;;;;;4995904;28;20461;-82
2022/03/29 12:54:13;;;;;;;17.50;14.10;;;;;;;;;;5053606;28;20040;-84
2022/03/29 12:57:44;;;;;;;23.75;15.85;;;;;;;;;;5067050;28;20051;-81
2022/03/29 13:02:03;;;;;;;22.15;14.02;;;;;;;;;;5014299;28;20045;-82
2022/03/29 13:16:50;;;;;;;20.15;13.60;;;;;;;;;;5023463;28;20555;-81
2022/03/29 13:20:19;;;;;;;21.40;14.85;;;;;;;;;;5021879;28;20100;-83
2022/03/29 13:23:52;;;;;;;17.80;13.38;;;;;;;;;;5030974;28;20039;-82
2022/03/29 13:26:25;;;;;;;22.45;13.18;;;;;;;;;;5011807;28;20040;-83
2022/03/29 13:28:56;;;;;;;20.63;13.57;;;;;;;;;;5038645;28;20623;-81
2022/03/29 13:31:25;;;;;;;18.13;14.03;;;;;;;;;;5062621;28;20061;-82
2022/03/29 13:33:56;;;;;;;15.82;13.07;;;;;;;;;;5085668;28;20032;-81
2022/03/29 13:36:37;;;;;;;18.10;13.65;;;;;;;;;;5086104;28;20035;-82
2022/03/29 13:39:08;;;;;;;18.60;12.75;;;;;;;;;;5084530;28;20048;-82
2022/03/29 13:41:56;;;;;;;16.63;13.15;;;;;;;;;;5086864;28;20024;-81
2022/03/29 13:44:23;;;;;;;16.88;13.85;;;;;;;;;;5078923;28;20337;-81
2022/03/29 13:46:53;;;;;;;17.63;13.52;;;;;;;;;;5080399;28;20050;-82
2022/03/29 13:49:25;;;;;;;18.98;13.95;;;;;;;;;;5085151;28;20055;-81
2022/03/29 13:51:53;;;;;;;17.90;13.30;;;;;;;;;;5093315;28;20060;-82
2022/03/29 13:54:22;;;;;;;18.25;12.77;;;;;;;;;;5102790;28;20042;-81
2022/03/29 13:56:49;;;;;;;21.80;13.90;;;;;;;;;;5105686;28;20050;-82
2022/03/29 13:59:22;;;;;;;17.33;13.88;;;;;;;;;;5105444;28;20098;-81
2022/03/29 14:01:49;;;;;;;21.42;13.63;;;;;;;;;;5104152;28;20063;-82
2022/03/29 14:04:17;;;;;;;22.85;14.00;;;;;;;;;;5102963;28;20048;-82
2022/03/29 14:06:44;;;;;;;17.77;13.05;;;;;;;;;;5099216;28;20048;-82
2022/03/29 14:09:11;;;;;;;15.95;11.02;;;;;;;;;;5083664;28;20040;-82
2022/03/29 14:11:38;;;;;;;19.13;11.27;;;;;;;;;;5092011;28;20047;-82
2022/03/29 14:14:06;;;;;;;17.58;12.10;;;;;;;;;;5084284;28;20079;-82
2022/03/29 14:16:41;;;;;;;13.13;10.63;;;;;;;;;;5085562;28;20040;-82
2022/03/29 14:19:08;;;;;;;18.65;10.65;;;;;;;;;;5088622;28;20044;-81
2022/03/29 14:21:36;;;;;;;17.95;10.90;;;;;;;;;;5089726;28;20086;-81
2022/03/29 14:24:04;;;;;;;13.88;10.43;;;;;;;;;;5082980;28;20087;-82
2022/03/29 14:26:33;;;;;;;22.30;12.00;;;;;;;;;;5080100;28;20044;-85
2022/03/29 14:29:07;;;;;;;22.23;12.30;;;;;;;;;;5061864;28;20048;-85
2022/03/29 14:31:44;;;;;;;18.13;12.70;;;;;;;;;;5065133;28;20039;-84
2022/03/29 14:34:42;;;;;;;18.63;11.57;;;;;;;;;;5061152;28;20043;-85
2022/03/29 14:41:29;;;;;;;14.93;11.13;;;;;;;;;;5061508;28;20253;-82
2022/03/29 14:44:38;;;;;;;21.75;10.95;;;;;;;;;;5016174;28;20052;-83
2022/03/29 14:47:39;;;;;;;14.15;9.90;;;;;;;;;;5028454;28;20059;-84
2022/03/29 14:50:43;;;;;;;16.00;10.07;;;;;;;;;;5070827;28;20056;-84
2022/03/29 14:54:10;;;;;;;17.27;10.55;;;;;;;;;;5067955;28;20091;-84
2022/03/29 14:57:21;;;;;;;16.20;10.60;;;;;;;;;;5061652;28;20115;-84
2022/03/29 15:01:25;;;;;;;17.20;10.00;;;;;;;;;;5010584;28;20071;-81
2022/03/29 15:05:52;;;;;;;15.13;11.13;;;;;;;;;;4994561;28;20587;-83
2022/03/29 15:12:41;;;;;;;21.70;13.10;;;;;;;;;;4946808;28;20058;-81
2022/03/29 15:16:13;;;;;;;17.35;9.70;;;;;;;;;;4965311;28;20472;-82
2022/03/29 15:19:25;;;;;;;10.25;7.55;;;;;;;;;;4883329;29;20723;-81
2022/03/29 15:23:26;;;;;;;10.63;7.55;;;;;;;;;;4816576;29;20383;-83
2022/03/29 15:30:25;;;;;;;10.85;7.72;;;;;;;;;;4862618;29;20068;-81
2022/03/29 15:33:09;;;;;;;17.27;7.82;;;;;;;;;;4826607;29;21494;-82
2022/03/29 15:36:32;;;;;;;8.80;6.43;;;;;;;;;;4869596;28;20053;-82
2022/03/29 15:39:50;;;;;;;13.25;7.20;;;;;;;;;;4977497;28;20055;-81
2022/03/29 16:07:26;;;;;;;17.00;6.63;;;;;;;;;;5029441;28;20060;-76
2022/03/29 16:09:53;;;;;;;7.43;5.70;;;;;;;;;;5030083;28;20044;-75
2022/03/29 16:12:22;;;;;;;8.52;5.50;;;;;;;;;;5005729;28;20097;-76
2022/03/29 16:14:49;;;;;;;7.70;5.70;;;;;;;;;;5027139;28;20461;-75
2022/03/29 16:17:17;;;;;;;7.30;5.80;;;;;;;;;;5033712;28;20118;-75
2022/03/29 16:19:44;;;;;;;12.82;6.47;;;;;;;;;;5015504;28;20056;-76
2022/03/29 16:22:12;;;;;;;11.25;6.60;;;;;;;;;;5033519;28;20825;-75
2022/03/29 16:24:40;;;;;;;10.25;6.38;;;;;;;;;;5033610;28;20555;-75